Sunday, April 20, 2014
03:31 UTC
  |  Log In   |  Register Free
Airport Search:

Visalia Municipal Airport
(KVIS)

Visalia Municipal Airport Diagram
No Airport Diagram Available

FAA data valid effective April 3, 2014 until May 29, 2014 (unless otherwise noted).

 
 
 
 
 
 
 
 
 
 
 
 
 
 

Current Aviation Weather for Visalia Municipal Airport (KVIS)

The most recent METAR observation for KVIS was updated at: 0255 UTC
METAR Summary (Translated METAR)
KVIS
200255Z AUTO 32007KT 10SM CLR 23/02 A2997 RMK AO1 52007
KHJO
(11.4 nm SW from KVIS)
200253Z AUTO 32009KT 10SM CLR 24/M01 A2999 RMK AO2 SLP155 T02391006 53006 $
TAF Summary (Translated TAF)
KVIS
191723Z 1918/2018 20004KT P6SM BKN200 FM192200 31008KT P6SM SCT200 TEMPO 1923/2002 31010G15KT FM200300 32004KT P6SM SKC FM201300 14003KT P6SM SKC
  Airport Weather Conditions for KVIS

 Current Weather at VIS
73° F
Fair
Northwest winds at 8.1 mph
VIS NOAA Radar

Pressure: 29.97 in
Humidity: 25%
Wind: Northwest at 8.1 MPH (7 KT)
Dew Point: 35.6°F
Visibility: 10.00 mi


Airport Weather Forecast for KVIS

Translated METAR and TAF for KVIS
Translated METAR for KVIS (0331 UTC 20 April 2014)
found at http://aviationweather.gov/adds/metars/
 
METAR text: KVIS 200315Z AUTO 33007KT 10SM CLR 23/02 A2998 RMK AO1
Conditions at: KVIS (VISALIA MUNI , CA, US) observed 0315 UTC 20 April 2014
Temperature: 23.0°C (73°F)
Dewpoint: 2.0°C (36°F) [RH = 25%]
Pressure (altimeter): 29.98 inches Hg (1015.3 mb)
Winds: from the NNW (330 degrees) at 8 MPH (7 knots; 3.6 m/s)
Visibility: 10 or more miles (16+ km)
Ceiling: at least 12,000 feet AGL
Clouds: sky clear below 12,000 feet AGL
Weather: automated observation with no human augmentation;
there may or may not be significant weather present at this time
Translated TAF for KVIS
Forecast for: KVIS (VISALIA MUNI , CA, US)
TAF Text: KVIS 192320Z 2000/2024 28007G15KT P6SM SKC
Forecast period: 0000 to 0300 UTC 20 April 2014
Forecast type: FROM: standard forecast or significant change
Winds: from the W (280 degrees) at 8 MPH (7 knots; 3.6 m/s)
gusting to 17 MPH (15 knots; 7.8 m/s)
Visibility: 6 or more miles (10+ km)
Clouds: clear skies
Weather: no significant weather forecast for this period
TAF Text: FM200300 32004KT P6SM SKC
Forecast period: 0300 to 1300 UTC 20 April 2014
Forecast type: FROM: standard forecast or significant change
Winds: from the NW (320 degrees) at 5 MPH (4 knots; 2.1 m/s)
Visibility: 6 or more miles (10+ km)
Clouds: clear skies
Weather: no significant weather forecast for this period
TAF Text: FM201300 14003KT P6SM SKC
Forecast period: 1300 to 1900 UTC 20 April 2014
Forecast type: FROM: standard forecast or significant change
Winds: from the SE (140 degrees) at 3 MPH (3 knots; 1.6 m/s)
Visibility: 6 or more miles (10+ km)
Clouds: clear skies
Weather: no significant weather forecast for this period
TAF Text: FM201900 29007KT P6SM SKC
Forecast period: 1900 UTC 20 April 2014 to 0000 UTC 21 April 2014
Forecast type: FROM: standard forecast or significant change
Winds: from the WNW (290 degrees) at 8 MPH (7 knots; 3.6 m/s)
Visibility: 6 or more miles (10+ km)
Clouds: clear skies
Weather: no significant weather forecast for this period

Find All Airport Services Find A Hotel Find A Rental Car Find A Golf Course Find A Restaurant $100 Hamburger



FBO's on the Field
FBO Company Facility Photos Services Transportation Aviation Fuel Prices: Prices include tax
Catering Weather Repair Courtesy Rental Type 100LL JetA JetA+ MOGAS 8087
 
Add another FBO Facility Photos Catering Weather Repair Courtesy Rental Type 100LL JetA JetA+ MOGAS 8087
Services Transportation Aviation Fuel Prices: Prices include tax
There are no FBO's currently reporting fuel at VIS. List your FBO now


GlobalAir.com Airport Resource Center model-print
model-print
model-print
model-print